createdAt,value
2022-12-25T00:01:17.147Z,39.53
2022-12-25T00:03:46.122Z,41.87
2022-12-25T00:06:15.084Z,42.27
2022-12-25T00:08:47.240Z,41.40
2022-12-25T00:11:17.710Z,42.03
2022-12-25T00:13:49.105Z,42.17
2022-12-25T00:16:19.538Z,43.30
2022-12-25T00:18:52.323Z,41.40
2022-12-25T00:21:21.328Z,41.50
2022-12-25T00:23:50.093Z,41.67
2022-12-25T00:26:19.945Z,38.70
2022-12-25T00:28:53.111Z,42.77
2022-12-25T00:31:22.002Z,42.80
2022-12-25T00:33:52.160Z,39.97
2022-12-25T00:36:22.975Z,38.97
2022-12-25T00:38:52.544Z,41.20
2022-12-25T00:41:43.925Z,39.90
2022-12-25T00:44:17.113Z,42.27
2022-12-25T00:46:46.172Z,42.17
2022-12-25T00:49:15.066Z,39.77
2022-12-25T00:51:43.757Z,36.77
2022-12-25T00:54:15.255Z,40.03
2022-12-25T00:56:43.490Z,35.50
2022-12-25T00:59:13.092Z,36.70
2022-12-25T01:01:43.241Z,38.17
2022-12-25T01:04:12.553Z,36.93
2022-12-25T01:06:41.491Z,33.40
2022-12-25T01:09:30.308Z,36.83
2022-12-25T01:11:59.131Z,33.90
2022-12-25T01:14:27.263Z,35.90
2022-12-25T01:17:00.173Z,34.93
2022-12-25T01:19:28.819Z,33.17
2022-12-25T01:21:57.075Z,36.37
2022-12-25T01:24:25.310Z,31.43
2022-12-25T01:26:55.308Z,32.10
2022-12-25T01:29:26.457Z,29.17
2022-12-25T01:31:57.234Z,27.10
2022-12-25T01:34:25.652Z,26.00
2022-12-25T01:36:54.160Z,27.90
2022-12-25T01:39:23.130Z,28.50
2022-12-25T01:41:54.311Z,24.77
2022-12-25T01:45:15.108Z,24.30
2022-12-25T01:47:48.216Z,24.13
2022-12-25T01:50:16.401Z,25.00
2022-12-25T01:52:45.386Z,24.03
2022-12-25T01:55:13.939Z,21.83
2022-12-25T01:57:44.666Z,21.63
2022-12-25T02:00:14.970Z,24.07
2022-12-25T02:02:46.248Z,21.13
2022-12-25T02:05:22.470Z,20.80
2022-12-25T02:07:52.708Z,23.43
2022-12-25T02:10:22.014Z,18.77
2022-12-25T02:12:51.148Z,22.00
2022-12-25T02:15:22.854Z,25.30
2022-12-25T02:18:02.110Z,21.07
2022-12-25T02:20:52.976Z,20.13
2022-12-25T02:24:02.211Z,25.30
2022-12-25T02:26:52.485Z,19.37
2022-12-25T02:29:30.998Z,19.10
2022-12-25T02:32:08.359Z,20.33
2022-12-25T02:34:44.449Z,18.97
2022-12-25T02:37:17.003Z,19.23
2022-12-25T02:40:00.336Z,20.20
2022-12-25T02:42:55.846Z,21.17
2022-12-25T02:45:49.673Z,19.23
2022-12-25T02:48:37.787Z,20.07
2022-12-25T02:51:26.976Z,19.50
2022-12-25T02:54:16.982Z,22.00
2022-12-25T02:57:05.496Z,22.27
2022-12-25T02:59:57.614Z,19.87
2022-12-25T03:02:46.884Z,21.23
2022-12-25T03:05:41.786Z,21.60
2022-12-25T03:08:15.276Z,21.00
2022-12-25T03:11:18.996Z,20.90
2022-12-25T03:13:52.427Z,22.03
2022-12-25T03:16:39.705Z,19.23
2022-12-25T03:19:26.457Z,21.67
2022-12-25T03:22:13.998Z,21.80
2022-12-25T03:25:00.722Z,21.73
2022-12-25T03:27:35.180Z,23.00
2022-12-25T03:30:21.981Z,23.13
2022-12-25T03:33:17.787Z,26.80
2022-12-25T03:36:04.851Z,24.17
2022-12-25T03:39:00.948Z,24.63
2022-12-25T03:41:57.100Z,24.23
2022-12-25T03:44:48.663Z,22.07
2022-12-25T03:47:37.755Z,27.17
2022-12-25T03:50:27.646Z,24.13
2022-12-25T03:53:17.727Z,25.23
2022-12-25T03:56:03.875Z,27.73
2022-12-25T03:58:50.857Z,27.23
2022-12-25T04:01:37.014Z,27.63
2022-12-25T04:04:25.523Z,30.00
2022-12-25T04:07:12.702Z,26.27
2022-12-25T04:10:02.590Z,28.90
2022-12-25T04:12:48.658Z,25.20
2022-12-25T04:15:34.654Z,26.80
2022-12-25T04:18:21.145Z,28.73
2022-12-25T04:21:10.196Z,30.53
2022-12-25T04:23:53.255Z,29.53
2022-12-25T04:26:41.037Z,27.47
2022-12-25T04:29:27.903Z,30.20
2022-12-25T04:32:20.281Z,29.50
2022-12-25T04:35:06.179Z,26.73
2022-12-25T04:37:35.164Z,28.47
2022-12-25T04:40:03.311Z,28.20
2022-12-25T04:42:36.254Z,28.30
2022-12-25T04:45:05.186Z,28.17
2022-12-25T04:47:34.174Z,28.10
2022-12-25T04:50:03.103Z,27.13
2022-12-25T04:52:37.522Z,32.33
2022-12-25T04:55:06.957Z,28.47
2022-12-25T04:57:37.195Z,29.73
2022-12-25T05:00:10.917Z,28.60
2022-12-25T05:02:40.259Z,30.80
2022-12-25T05:05:10.221Z,30.27
2022-12-25T05:07:39.248Z,29.87
2022-12-25T05:10:09.194Z,27.83
2022-12-25T05:12:41.793Z,31.60
2022-12-25T05:15:11.052Z,31.90
2022-12-25T05:17:40.009Z,31.73
2022-12-25T05:20:11.345Z,29.17
2022-12-25T05:22:43.172Z,32.93
2022-12-25T05:25:12.201Z,33.23
2022-12-25T05:27:42.269Z,30.97
2022-12-25T05:30:11.136Z,36.23
2022-12-25T05:32:40.268Z,32.27
2022-12-25T05:35:09.415Z,31.50
2022-12-25T05:37:38.204Z,32.40
2022-12-25T05:40:08.067Z,30.00
2022-12-25T05:42:40.703Z,27.73
2022-12-25T05:45:11.369Z,32.77
2022-12-25T05:47:39.739Z,30.87
2022-12-25T05:50:10.040Z,29.50
2022-12-25T05:52:39.195Z,32.83
2022-12-25T05:55:09.994Z,28.57
2022-12-25T05:57:38.163Z,31.50
2022-12-25T06:00:11.047Z,29.63
2022-12-25T06:02:42.333Z,34.07
2022-12-25T06:05:13.830Z,30.33
2022-12-25T06:07:42.177Z,31.57
2022-12-25T06:10:10.854Z,32.87
2022-12-25T06:12:40.196Z,33.17
2022-12-25T06:15:12.034Z,36.47
2022-12-25T06:17:43.871Z,38.47
2022-12-25T06:20:12.331Z,37.03
2022-12-25T06:22:41.189Z,31.17
2022-12-25T06:25:10.279Z,34.00
2022-12-25T06:27:39.281Z,35.93
2022-12-25T06:30:08.841Z,33.10
2022-12-25T06:32:41.268Z,32.73
2022-12-25T06:35:09.998Z,31.13
2022-12-25T06:37:39.226Z,31.40
2022-12-25T06:40:13.176Z,32.43
2022-12-25T06:42:41.421Z,29.13
2022-12-25T06:45:10.462Z,32.80
2022-12-25T06:47:40.250Z,31.03
2022-12-25T06:50:09.239Z,27.50
2022-12-25T06:52:38.241Z,33.40
2022-12-25T06:55:09.482Z,29.93
2022-12-25T06:57:38.285Z,28.17
2022-12-25T07:00:08.104Z,33.33
2022-12-25T07:02:41.154Z,38.80
2022-12-25T07:05:11.688Z,33.90
2022-12-25T07:07:40.137Z,39.40
2022-12-25T07:10:09.537Z,41.03
2022-12-25T07:12:37.779Z,40.43
2022-12-25T07:15:08.908Z,46.53
2022-12-25T07:17:37.266Z,48.83
2022-12-25T07:20:07.030Z,50.37
2022-12-25T07:22:37.263Z,50.43
2022-12-25T07:25:06.028Z,60.17
2022-12-25T07:27:38.385Z,65.23
2022-12-25T07:30:08.221Z,55.00
2022-12-25T07:32:37.218Z,56.77
2022-12-25T07:35:06.097Z,53.13
2022-12-25T07:37:34.284Z,59.03
2022-12-25T07:40:10.074Z,51.00
2022-12-25T07:42:39.248Z,56.83
2022-12-25T07:45:12.241Z,51.57
2022-12-25T07:47:40.508Z,52.50
2022-12-25T07:50:10.275Z,47.30
2022-12-25T07:52:43.381Z,47.97
2022-12-25T07:55:15.854Z,48.83
2022-12-25T07:57:44.121Z,49.00
2022-12-25T08:00:13.765Z,50.33
2022-12-25T08:02:42.425Z,45.47
2022-12-25T08:05:11.314Z,45.60
2022-12-25T08:07:39.548Z,46.33
2022-12-25T08:10:08.693Z,43.03
2022-12-25T08:12:39.273Z,43.70
2022-12-25T08:15:15.763Z,49.67
2022-12-25T08:17:43.889Z,44.80
2022-12-25T08:20:15.745Z,46.23
2022-12-25T08:22:43.929Z,42.40
2022-12-25T08:25:12.113Z,44.10
2022-12-25T08:27:45.466Z,43.23
2022-12-25T08:30:15.231Z,48.40
2022-12-25T08:32:44.465Z,48.50
2022-12-25T08:35:12.640Z,45.10
2022-12-25T08:37:41.265Z,49.73
2022-12-25T08:40:12.328Z,47.20
2022-12-25T08:42:41.935Z,46.87
2022-12-25T08:45:11.493Z,47.30
2022-12-25T08:47:40.215Z,49.33
2022-12-25T08:50:09.824Z,47.03
2022-12-25T08:52:41.810Z,53.27
2022-12-25T08:55:10.591Z,48.07
2022-12-25T08:57:40.546Z,57.20
2022-12-25T09:00:11.444Z,53.70
2022-12-25T09:02:39.681Z,54.80
2022-12-25T09:05:10.698Z,53.37
2022-12-25T09:07:39.082Z,50.80
2022-12-25T09:10:10.518Z,55.10
2022-12-25T09:12:38.930Z,58.80
2022-12-25T09:15:09.690Z,51.77
2022-12-25T09:17:40.011Z,56.87
2022-12-25T09:20:09.133Z,51.93
2022-12-25T09:22:37.377Z,55.33
2022-12-25T09:25:06.125Z,54.03
2022-12-25T09:27:34.359Z,53.57
2022-12-25T09:30:02.663Z,49.83
2022-12-25T09:32:35.769Z,51.60
2022-12-25T09:35:04.219Z,50.13
2022-12-25T09:37:32.452Z,49.73
2022-12-25T09:40:00.587Z,46.50
2022-12-25T09:42:36.314Z,42.73
2022-12-25T09:45:10.834Z,43.10
2022-12-25T09:47:45.932Z,44.63
2022-12-25T09:50:17.729Z,43.33
2022-12-25T09:52:53.108Z,44.80
2022-12-25T09:55:24.226Z,47.90
2022-12-25T09:57:55.456Z,38.57
2022-12-25T10:00:25.747Z,38.63
2022-12-25T10:03:26.415Z,38.30
2022-12-25T10:06:13.632Z,36.60
2022-12-25T10:09:13.982Z,35.07
2022-12-25T10:12:00.465Z,35.80
2022-12-25T10:14:39.252Z,34.27
2022-12-25T10:17:28.138Z,36.50
2022-12-25T10:20:03.325Z,37.07
2022-12-25T10:22:38.947Z,36.23
2022-12-25T10:25:18.399Z,32.97
2022-12-25T10:27:53.409Z,34.87
2022-12-25T10:30:24.405Z,35.30
2022-12-25T10:32:54.361Z,35.80
2022-12-25T10:35:29.317Z,35.70
2022-12-25T10:38:02.361Z,32.43
2022-12-25T10:40:41.921Z,32.90
2022-12-25T10:43:16.189Z,32.90
2022-12-25T10:45:45.970Z,35.30
2022-12-25T10:48:24.753Z,32.57
2022-12-25T10:50:53.320Z,32.50
2022-12-25T10:53:26.337Z,30.50
2022-12-25T10:56:01.320Z,31.00
2022-12-25T10:58:30.351Z,28.67
2022-12-25T11:01:01.337Z,28.73
2022-12-25T11:03:32.470Z,28.37
2022-12-25T11:06:04.168Z,27.27
2022-12-25T11:08:36.344Z,26.90
2022-12-25T11:11:07.081Z,30.70
2022-12-25T11:13:40.621Z,29.37
2022-12-25T11:16:11.723Z,24.73
2022-12-25T11:18:48.624Z,26.13
2022-12-25T11:21:19.147Z,27.90
2022-12-25T11:23:57.349Z,29.33
2022-12-25T11:26:26.176Z,25.90
2022-12-25T11:28:56.607Z,26.37
2022-12-25T11:31:35.440Z,26.50
2022-12-25T11:34:11.484Z,26.63
2022-12-25T11:36:48.769Z,24.97
2022-12-25T11:39:24.842Z,24.40
2022-12-25T11:42:01.419Z,24.23
2022-12-25T11:44:43.999Z,22.57
2022-12-25T11:47:20.392Z,23.70
2022-12-25T11:49:58.585Z,22.87
2022-12-25T11:52:34.361Z,23.53
2022-12-25T11:55:10.138Z,23.67
2022-12-25T11:57:40.338Z,23.73
2022-12-25T12:00:16.724Z,23.73
2022-12-25T12:02:48.418Z,21.73
2022-12-25T12:05:44.813Z,22.80
2022-12-25T12:08:14.473Z,26.07
2022-12-25T12:11:18.418Z,26.87
2022-12-25T12:13:59.324Z,21.30
2022-12-25T12:16:28.242Z,23.73
2022-12-25T12:18:57.343Z,23.97
2022-12-25T12:21:27.510Z,25.63
2022-12-25T12:24:06.370Z,26.13
2022-12-25T12:26:41.046Z,23.83
2022-12-25T12:29:23.345Z,34.67
2022-12-25T12:31:53.257Z,28.10
2022-12-25T12:34:25.398Z,23.53
2022-12-25T12:37:01.213Z,22.67
2022-12-25T12:39:35.633Z,24.07
2022-12-25T12:42:14.798Z,22.00
2022-12-25T12:44:48.411Z,26.73
2022-12-25T12:47:31.393Z,25.23
2022-12-25T12:50:01.392Z,25.30
2022-12-25T12:52:36.422Z,23.30
2022-12-25T12:55:07.476Z,24.03
2022-12-25T12:57:43.397Z,25.83
2022-12-25T13:00:18.216Z,25.30
2022-12-25T13:03:35.028Z,26.80
2022-12-25T13:06:13.807Z,24.60
2022-12-25T13:08:58.401Z,27.23
2022-12-25T13:11:30.369Z,24.43
2022-12-25T13:14:03.826Z,29.20
2022-12-25T13:16:38.092Z,26.60
2022-12-25T13:19:10.398Z,26.83
2022-12-25T13:21:38.644Z,24.00
2022-12-25T13:24:18.405Z,27.47
2022-12-25T13:26:47.759Z,35.97
2022-12-25T13:29:30.882Z,27.40
2022-12-25T13:32:00.178Z,25.07
2022-12-25T13:34:32.490Z,24.60
2022-12-25T13:37:05.620Z,28.53
2022-12-25T13:39:35.818Z,26.23
2022-12-25T13:42:09.576Z,27.93
2022-12-25T13:44:46.231Z,30.00
2022-12-25T13:47:21.434Z,29.07
2022-12-25T13:49:50.996Z,29.20
2022-12-25T13:52:22.408Z,27.27
2022-12-25T13:54:55.729Z,26.70
2022-12-25T13:57:29.435Z,28.13
2022-12-25T14:00:03.609Z,29.60
2022-12-25T14:02:37.532Z,28.30
2022-12-25T14:05:23.442Z,26.17
2022-12-25T14:07:54.005Z,28.00
2022-12-25T14:10:24.249Z,28.30
2022-12-25T14:12:54.795Z,27.37
2022-12-25T14:15:33.870Z,27.17
2022-12-25T14:18:03.405Z,27.73
2022-12-25T14:20:41.485Z,26.87
2022-12-25T14:23:16.621Z,28.90
2022-12-25T14:25:47.483Z,26.10
2022-12-25T14:28:24.729Z,27.93
2022-12-25T14:30:55.579Z,30.97
2022-12-25T14:33:27.407Z,45.93
2022-12-25T14:36:01.023Z,35.00
2022-12-25T14:38:32.468Z,28.23
2022-12-25T14:41:02.496Z,34.30
2022-12-25T14:43:36.497Z,27.43
2022-12-25T14:46:07.315Z,28.57
2022-12-25T14:48:35.725Z,32.33
2022-12-25T14:51:07.604Z,28.83
2022-12-25T14:53:39.153Z,27.33
2022-12-25T14:56:09.118Z,26.83
2022-12-25T14:58:42.433Z,27.77
2022-12-25T15:01:24.562Z,28.00
2022-12-25T15:03:53.015Z,26.33
2022-12-25T15:06:24.966Z,28.70
2022-12-25T15:09:00.599Z,27.10
2022-12-25T15:11:30.242Z,29.23
2022-12-25T15:13:59.794Z,29.13
2022-12-25T15:16:32.177Z,30.93
2022-12-25T15:19:01.583Z,32.40
2022-12-25T15:21:34.133Z,33.53
2022-12-25T15:24:02.517Z,32.67
2022-12-25T15:26:36.643Z,34.33
2022-12-25T15:29:06.204Z,33.87
2022-12-25T15:31:37.714Z,36.63
2022-12-25T15:34:08.286Z,36.33
2022-12-25T15:36:36.788Z,34.73
2022-12-25T15:39:05.055Z,35.90
2022-12-25T15:41:54.533Z,41.07
2022-12-25T15:44:27.278Z,35.93
2022-12-25T15:46:57.177Z,37.37
2022-12-25T15:49:25.326Z,37.70
2022-12-25T15:51:53.541Z,43.83
2022-12-25T15:54:21.818Z,35.23
2022-12-25T15:56:52.721Z,41.53
2022-12-25T15:59:22.042Z,40.80
2022-12-25T16:01:52.371Z,42.40
2022-12-25T16:04:23.295Z,42.30
2022-12-25T16:06:56.080Z,45.30
2022-12-25T16:09:25.277Z,43.53
2022-12-25T16:11:53.485Z,39.70
2022-12-25T16:14:21.989Z,41.23
2022-12-25T16:16:50.244Z,45.50
2022-12-25T16:19:18.584Z,46.10
2022-12-25T16:21:48.578Z,46.23
2022-12-25T16:24:17.450Z,48.43
2022-12-25T16:26:45.763Z,48.57
2022-12-25T16:29:14.470Z,58.17
2022-12-25T16:31:43.559Z,58.23
2022-12-25T16:34:11.855Z,60.30
2022-12-25T16:36:40.179Z,59.83
2022-12-25T16:39:12.378Z,72.47
2022-12-25T16:41:40.524Z,66.07
2022-12-25T16:44:10.481Z,64.50
2022-12-25T16:46:40.710Z,70.90
2022-12-25T16:49:12.636Z,74.03
2022-12-25T16:51:40.848Z,75.83
2022-12-25T16:54:10.359Z,80.60
2022-12-25T16:56:38.625Z,85.63
2022-12-25T16:59:06.770Z,80.90
2022-12-25T17:01:35.039Z,87.60
2022-12-25T17:04:03.646Z,82.03
2022-12-25T17:06:34.344Z,78.57
2022-12-25T17:09:03.665Z,78.57
2022-12-25T17:11:33.415Z,76.07
2022-12-25T17:14:03.713Z,79.67
2022-12-25T17:16:36.427Z,80.50
2022-12-25T17:19:08.156Z,76.97
2022-12-25T17:21:38.321Z,77.37
2022-12-25T17:24:11.027Z,76.90
2022-12-25T17:26:41.630Z,72.80
2022-12-25T17:29:10.668Z,80.97
2022-12-25T17:31:39.590Z,70.57
2022-12-25T17:34:12.563Z,77.33
2022-12-25T17:36:40.760Z,74.10
2022-12-25T17:39:09.013Z,71.93
2022-12-25T17:41:37.223Z,73.77
2022-12-25T17:44:06.833Z,74.10
2022-12-25T17:46:40.417Z,72.33
2022-12-25T17:49:08.732Z,73.57
2022-12-25T17:51:36.918Z,75.97
2022-12-25T17:54:05.197Z,78.67
2022-12-25T17:56:34.380Z,74.00
2022-12-25T17:59:07.003Z,83.13
2022-12-25T18:01:38.914Z,73.30
2022-12-25T18:04:07.923Z,84.53
2022-12-25T18:06:37.180Z,92.30
2022-12-25T18:09:09.856Z,86.33
2022-12-25T18:11:40.288Z,82.27
2022-12-25T18:14:10.048Z,75.00
2022-12-25T18:16:43.141Z,81.23
2022-12-25T18:19:12.243Z,71.53
2022-12-25T18:21:40.545Z,76.37
2022-12-25T18:24:09.639Z,71.10
2022-12-25T18:26:38.090Z,71.60
2022-12-25T18:29:07.025Z,71.43
2022-12-25T18:31:39.697Z,74.83
2022-12-25T18:34:07.859Z,65.77
2022-12-25T18:36:37.099Z,73.37
2022-12-25T18:39:05.666Z,68.10
2022-12-25T18:41:53.797Z,67.10
2022-12-25T18:44:21.963Z,66.30
2022-12-25T18:46:51.484Z,62.60
2022-12-25T18:49:19.643Z,80.17
2022-12-25T18:51:50.661Z,67.23
2022-12-25T18:54:22.230Z,66.00
2022-12-25T18:56:53.441Z,66.20
2022-12-25T18:59:22.070Z,70.27
2022-12-25T19:01:51.668Z,64.77
2022-12-25T19:04:24.739Z,67.70
2022-12-25T19:06:52.923Z,66.33
2022-12-25T19:09:21.108Z,66.07
2022-12-25T19:11:49.318Z,71.53
2022-12-25T19:14:17.580Z,72.03
2022-12-25T19:16:45.975Z,61.43
2022-12-25T19:19:16.302Z,63.27
2022-12-25T19:21:44.497Z,65.73
2022-12-25T19:24:12.827Z,56.87
2022-12-25T19:26:41.116Z,67.00
2022-12-25T19:29:09.341Z,70.23
2022-12-25T19:31:40.657Z,63.50
2022-12-25T19:34:12.398Z,66.63
2022-12-25T19:36:42.136Z,64.17
2022-12-25T19:39:13.538Z,64.37
2022-12-25T19:41:41.853Z,67.63
2022-12-25T19:44:10.061Z,69.33
2022-12-25T19:46:40.520Z,62.17
2022-12-25T19:49:11.322Z,65.77
2022-12-25T19:51:43.935Z,66.20
2022-12-25T19:54:16.544Z,68.03
2022-12-25T19:56:45.255Z,62.70
2022-12-25T19:59:14.577Z,62.03
2022-12-25T20:01:43.562Z,67.23
2022-12-25T20:04:15.413Z,59.13
2022-12-25T20:06:45.407Z,60.33
2022-12-25T20:09:16.992Z,55.97
2022-12-25T20:11:52.800Z,57.30
2022-12-25T20:14:21.239Z,59.93
2022-12-25T20:16:49.669Z,59.47
2022-12-25T20:19:17.926Z,56.47
2022-12-25T20:21:48.736Z,59.17
2022-12-25T20:24:20.439Z,64.00
2022-12-25T20:26:50.532Z,59.30
2022-12-25T20:29:21.995Z,59.03
2022-12-25T20:31:51.264Z,53.53
2022-12-25T20:34:20.353Z,76.67
2022-12-25T20:36:50.265Z,62.63
2022-12-25T20:39:18.536Z,54.93
2022-12-25T20:41:47.578Z,53.43
2022-12-25T20:44:15.781Z,51.93
2022-12-25T20:46:47.548Z,59.23
2022-12-25T20:49:15.738Z,65.63
2022-12-25T20:51:43.882Z,49.67
2022-12-25T20:54:14.974Z,60.50
2022-12-25T20:56:43.234Z,60.00
2022-12-25T20:59:12.305Z,46.67
2022-12-25T21:01:42.393Z,53.17
2022-12-25T21:04:16.038Z,41.07
2022-12-25T21:06:44.809Z,46.63
2022-12-25T21:09:14.474Z,40.70
2022-12-25T21:11:42.668Z,41.60
2022-12-25T21:14:11.131Z,45.30
2022-12-25T21:16:40.450Z,42.60
2022-12-25T21:19:08.638Z,43.20
2022-12-25T21:21:39.180Z,44.83
2022-12-25T21:24:10.275Z,43.97
2022-12-25T21:26:46.082Z,45.47
2022-12-25T21:29:22.941Z,40.27
2022-12-25T21:32:09.263Z,46.43
2022-12-25T21:34:37.795Z,45.03
2022-12-25T21:37:06.020Z,43.93
2022-12-25T21:39:36.064Z,48.80
2022-12-25T21:42:05.863Z,46.20
2022-12-25T21:44:34.116Z,51.00
2022-12-25T21:47:02.236Z,55.73
2022-12-25T21:49:50.385Z,50.13
2022-12-25T21:52:19.635Z,47.50
2022-12-25T21:54:47.795Z,49.47
2022-12-25T21:57:17.444Z,51.43
2022-12-25T21:59:46.408Z,51.17
2022-12-25T22:02:14.880Z,45.07
2022-12-25T22:04:45.254Z,46.37
2022-12-25T22:07:19.306Z,52.60
2022-12-25T22:09:48.646Z,44.97
2022-12-25T22:12:38.315Z,47.57
2022-12-25T22:15:09.619Z,46.87
2022-12-25T22:17:58.239Z,48.17
2022-12-25T22:20:30.150Z,49.30
2022-12-25T22:22:59.234Z,51.67
2022-12-25T22:25:27.933Z,45.10
2022-12-25T22:27:59.648Z,47.57
2022-12-25T22:30:30.600Z,49.17
2022-12-25T22:32:59.705Z,49.83
2022-12-25T22:35:28.054Z,46.07
2022-12-25T22:37:56.407Z,46.77
2022-12-25T22:40:24.621Z,48.20
2022-12-25T22:42:58.155Z,46.00
2022-12-25T22:45:26.542Z,47.63
2022-12-25T22:47:54.924Z,46.33
2022-12-25T22:50:23.786Z,46.97
2022-12-25T22:52:55.637Z,45.27
2022-12-25T22:55:23.797Z,47.33
2022-12-25T22:57:52.167Z,51.70
2022-12-25T23:00:21.819Z,46.63
2022-12-25T23:02:50.874Z,47.60
2022-12-25T23:05:22.302Z,46.00
2022-12-25T23:07:51.586Z,45.27
2022-12-25T23:10:20.444Z,47.63
2022-12-25T23:13:07.322Z,43.50
2022-12-25T23:15:38.481Z,41.97
2022-12-25T23:18:25.040Z,39.03
2022-12-25T23:21:11.291Z,40.63
2022-12-25T23:24:08.973Z,43.97
2022-12-25T23:26:38.441Z,41.70
2022-12-25T23:29:25.815Z,41.20
2022-12-25T23:31:56.480Z,44.67
2022-12-25T23:34:25.122Z,39.37
2022-12-25T23:36:53.247Z,38.30
2022-12-25T23:39:23.650Z,40.43
2022-12-25T23:41:51.918Z,38.97
2022-12-25T23:44:21.901Z,37.53
2022-12-25T23:46:52.304Z,33.63
2022-12-25T23:49:23.471Z,32.07
2022-12-25T23:51:52.613Z,32.13
2022-12-25T23:54:22.869Z,30.97
2022-12-25T23:56:52.441Z,31.00
2022-12-25T23:59:21.632Z,30.37
